createdAt,value
2017-11-06T00:00:49.133Z,100200.80
2017-11-06T00:03:50.559Z,100203.37
2017-11-06T00:06:51.962Z,100206.55
2017-11-06T00:09:53.400Z,100206.03
2017-11-06T00:12:54.933Z,100197.29
2017-11-06T00:15:56.374Z,100204.70
2017-11-06T00:18:57.815Z,100221.27
2017-11-06T00:21:59.212Z,100223.05
2017-11-06T00:25:00.668Z,100225.22
2017-11-06T00:28:02.064Z,100221.35
2017-11-06T00:31:03.541Z,100229.64
2017-11-06T00:34:04.982Z,100222.66
2017-11-06T00:37:06.367Z,100229.72
2017-11-06T00:40:07.830Z,100236.80
2017-11-06T00:43:09.247Z,100247.52
2017-11-06T00:46:10.699Z,100248.19
2017-11-06T00:49:12.156Z,100249.55
2017-11-06T00:52:13.608Z,100267.40
2017-11-06T00:55:15.103Z,100266.96
2017-11-06T00:58:16.472Z,100265.48
2017-11-06T01:01:18.700Z,100261.15
2017-11-06T01:04:20.179Z,100267.78
2017-11-06T01:07:21.626Z,100260.33
2017-11-06T01:10:23.037Z,100271.73
2017-11-06T01:13:24.478Z,100265.83
2017-11-06T01:16:25.970Z,100264.61
2017-11-06T01:19:27.398Z,100282.03
2017-11-06T01:22:28.892Z,100282.27
2017-11-06T01:25:31.047Z,100286.23
2017-11-06T01:28:32.491Z,100291.02
2017-11-06T01:31:33.960Z,100285.39
2017-11-06T01:34:35.447Z,100301.42
2017-11-06T01:37:36.956Z,100296.55
2017-11-06T01:40:38.408Z,100308.33
2017-11-06T01:43:39.830Z,100304.23
2017-11-06T01:46:41.235Z,100309.28
2017-11-06T01:49:42.680Z,100304.63
2017-11-06T01:52:44.219Z,100309.41
2017-11-06T01:55:45.718Z,100316.48
2017-11-06T01:58:47.948Z,100313.59
2017-11-06T02:01:49.430Z,100324.27
2017-11-06T02:04:51.711Z,100318.02
2017-11-06T02:07:53.853Z,100312.23
2017-11-06T02:10:55.357Z,100311.48
2017-11-06T02:13:56.831Z,100315.22
2017-11-06T02:16:58.287Z,100311.70
2017-11-06T02:19:59.742Z,100315.66
2017-11-06T02:23:01.239Z,100310.48
2017-11-06T02:26:03.521Z,100320.97
2017-11-06T02:29:05.731Z,100333.66
2017-11-06T02:32:07.266Z,100324.20
2017-11-06T02:35:08.761Z,100323.47
2017-11-06T02:38:10.221Z,100324.30
2017-11-06T02:41:11.956Z,100324.67
2017-11-06T02:44:13.394Z,100333.92
2017-11-06T02:47:14.871Z,100328.70
2017-11-06T02:50:16.242Z,100339.29
2017-11-06T02:53:20.732Z,100352.19
2017-11-06T02:56:22.199Z,100358.13
2017-11-06T02:59:23.660Z,100368.98
2017-11-06T03:02:25.186Z,100365.28
2017-11-06T03:05:26.651Z,100365.24
2017-11-06T03:08:28.121Z,100375.45
2017-11-06T03:11:29.537Z,100371.74
2017-11-06T03:14:30.991Z,100377.14
2017-11-06T03:17:32.848Z,100363.97
2017-11-06T03:20:34.304Z,100363.92
2017-11-06T03:23:35.805Z,100378.23
2017-11-06T03:26:37.285Z,100378.82
2017-11-06T03:29:39.415Z,100396.03
2017-11-06T03:32:40.835Z,100398.06
2017-11-06T03:35:42.316Z,100407.28
2017-11-06T03:38:43.727Z,100410.80
2017-11-06T03:41:45.203Z,100416.47
2017-11-06T03:44:46.608Z,100424.81
2017-11-06T03:50:56.954Z,100431.37
2017-11-06T03:53:58.416Z,100440.89
2017-11-06T03:56:59.872Z,100432.98
2017-11-06T04:00:01.285Z,100445.69
2017-11-06T04:03:02.779Z,100450.61
2017-11-06T04:06:04.164Z,100444.42
2017-11-06T04:09:05.627Z,100453.94
2017-11-06T04:12:07.091Z,100448.33
2017-11-06T04:15:08.536Z,100460.72
2017-11-06T04:18:09.957Z,100469.17
2017-11-06T04:21:11.391Z,100464.42
2017-11-06T04:24:12.858Z,100482.92
2017-11-06T04:27:14.983Z,100472.08
2017-11-06T04:30:16.486Z,100465.17
2017-11-06T04:33:18.678Z,100464.32
2017-11-06T04:36:20.188Z,100472.72
2017-11-06T04:39:21.696Z,100471.98
2017-11-06T04:42:25.070Z,100461.25
2017-11-06T04:45:27.278Z,100475.19
2017-11-06T04:48:28.764Z,100476.90
2017-11-06T04:51:30.234Z,100489.81
2017-11-06T04:54:32.486Z,100484.14
2017-11-06T04:57:34.736Z,100484.62
2017-11-06T05:00:36.167Z,100495.09
2017-11-06T05:03:37.671Z,100502.12
2017-11-06T05:06:39.842Z,100503.55
2017-11-06T05:09:42.015Z,100506.18
2017-11-06T05:12:44.179Z,100508.78
2017-11-06T05:15:46.415Z,100506.95
2017-11-06T05:18:47.908Z,100511.86
2017-11-06T05:21:50.051Z,100522.38
2017-11-06T05:24:51.460Z,100521.82
2017-11-06T05:27:52.904Z,100523.39
2017-11-06T05:30:54.291Z,100528.20
2017-11-06T05:33:55.672Z,100544.81
2017-11-06T05:36:57.128Z,100549.29
2017-11-06T05:39:58.536Z,100550.27
2017-11-06T05:43:00.012Z,100563.67
2017-11-06T05:46:01.479Z,100558.84
2017-11-06T05:49:02.892Z,100558.14
2017-11-06T05:52:04.333Z,100581.12
2017-11-06T05:55:05.752Z,100582.72
2017-11-06T05:58:08.003Z,100590.55
2017-11-06T06:01:09.455Z,100583.84
2017-11-06T06:04:10.911Z,100601.52
2017-11-06T06:07:13.143Z,100594.16
2017-11-06T06:10:14.537Z,100593.11
2017-11-06T06:13:15.972Z,100599.70
2017-11-06T06:16:17.519Z,100617.97
2017-11-06T06:19:19.079Z,100610.03
2017-11-06T06:22:20.498Z,100610.41
2017-11-06T06:25:21.953Z,100616.16
2017-11-06T06:28:23.427Z,100613.11
2017-11-06T06:31:24.886Z,100630.69
2017-11-06T06:34:26.387Z,100634.61
2017-11-06T06:37:28.584Z,100648.22
2017-11-06T06:40:30.048Z,100645.60
2017-11-06T06:43:31.442Z,100655.26
2017-11-06T06:46:32.825Z,100658.31
2017-11-06T06:49:34.308Z,100656.50
2017-11-06T06:52:35.739Z,100657.37
2017-11-06T06:55:37.204Z,100662.20
2017-11-06T06:58:38.630Z,100659.62
2017-11-06T07:04:48.484Z,100671.88
2017-11-06T07:07:50.747Z,100675.01
2017-11-06T07:10:53.023Z,100673.56
2017-11-06T07:13:55.227Z,100683.14
2017-11-06T07:16:56.773Z,100675.98
2017-11-06T07:19:58.251Z,100676.28
2017-11-06T07:22:59.739Z,100689.11
2017-11-06T07:26:01.183Z,100697.81
2017-11-06T07:29:02.645Z,100694.73
2017-11-06T07:32:04.819Z,100705.94
2017-11-06T07:35:07.068Z,100706.73
2017-11-06T07:38:08.508Z,100715.03
2017-11-06T07:41:09.947Z,100714.56
2017-11-06T07:44:11.389Z,100723.86
2017-11-06T07:47:12.775Z,100726.81
2017-11-06T07:50:14.234Z,100734.23
2017-11-06T07:53:15.808Z,100743.88
2017-11-06T07:56:17.344Z,100742.12
2017-11-06T07:59:18.969Z,100749.92
2017-11-06T08:02:20.602Z,100755.17
2017-11-06T08:05:22.263Z,100763.21
2017-11-06T08:08:23.846Z,100763.31
2017-11-06T08:11:25.413Z,100762.30
2017-11-06T08:14:26.984Z,100767.14
2017-11-06T08:17:28.753Z,100753.97
2017-11-06T08:20:30.784Z,100757.45
2017-11-06T08:23:33.242Z,100755.80
2017-11-06T08:26:35.021Z,100770.31
2017-11-06T08:29:36.741Z,100762.52
2017-11-06T08:32:38.544Z,100774.18
2017-11-06T08:35:40.093Z,100784.67
2017-11-06T08:38:41.552Z,100781.41
2017-11-06T08:41:42.998Z,100777.19
2017-11-06T08:44:44.424Z,100782.84
2017-11-06T08:47:45.893Z,100795.58
2017-11-06T08:50:47.403Z,100788.34
2017-11-06T08:53:49.598Z,100796.28
2017-11-06T08:56:51.114Z,100800.91
2017-11-06T08:59:52.620Z,100803.55
2017-11-06T09:02:54.114Z,100790.09
2017-11-06T09:05:55.540Z,100806.78
2017-11-06T09:08:57.335Z,100808.08
2017-11-06T09:15:14.348Z,100807.61
2017-11-06T09:18:16.247Z,100813.15
2017-11-06T09:21:18.859Z,100826.07
2017-11-06T09:24:22.100Z,100828.25
2017-11-06T09:27:23.948Z,100828.17
2017-11-06T09:30:25.458Z,100834.28
2017-11-06T09:33:26.928Z,100839.28
2017-11-06T09:36:28.451Z,100821.59
2017-11-06T09:39:30.663Z,100852.66
2017-11-06T09:42:32.168Z,100853.33
2017-11-06T09:45:34.381Z,100860.93
2017-11-06T09:48:35.843Z,100860.45
2017-11-06T09:51:37.296Z,100855.25
2017-11-06T09:54:38.811Z,100849.95
2017-11-06T09:57:40.316Z,100851.92
2017-11-06T10:00:41.840Z,100858.05
2017-11-06T10:03:43.447Z,100856.39
2017-11-06T10:06:45.753Z,100856.22
2017-11-06T10:09:47.248Z,100853.52
2017-11-06T10:12:48.800Z,100854.41
2017-11-06T10:15:50.295Z,100868.26
2017-11-06T10:18:52.563Z,100866.88
2017-11-06T10:21:54.803Z,100858.75
2017-11-06T10:24:56.341Z,100861.15
2017-11-06T10:27:57.909Z,100868.95
2017-11-06T10:30:59.488Z,100857.41
2017-11-06T10:34:01.797Z,100863.52
2017-11-06T10:37:03.299Z,100866.11
2017-11-06T10:40:04.891Z,100869.84
2017-11-06T10:43:07.157Z,100876.22
2017-11-06T10:46:09.433Z,100875.27
2017-11-06T10:49:11.715Z,100880.56
2017-11-06T10:52:13.251Z,100874.82
2017-11-06T10:55:15.535Z,100871.22
2017-11-06T10:58:17.056Z,100874.55
2017-11-06T11:01:18.601Z,100886.73
2017-11-06T11:04:20.152Z,100883.66
2017-11-06T11:07:21.604Z,100879.55
2017-11-06T11:10:23.186Z,100875.95
2017-11-06T11:13:24.700Z,100879.61
2017-11-06T11:16:26.261Z,100866.38
2017-11-06T11:19:27.821Z,100881.77
2017-11-06T11:25:37.876Z,100877.92
2017-11-06T11:28:39.389Z,100873.14
2017-11-06T11:31:41.686Z,100875.22
2017-11-06T11:34:43.190Z,100880.43
2017-11-06T11:37:45.529Z,100886.27
2017-11-06T11:43:55.379Z,100888.40
2017-11-06T11:46:56.858Z,100887.93
2017-11-06T11:49:58.372Z,100883.59
2017-11-06T11:52:59.900Z,100891.11
2017-11-06T11:56:02.125Z,100892.86
2017-11-06T11:59:03.756Z,100890.91
2017-11-06T12:02:05.268Z,100886.03
2017-11-06T12:05:06.801Z,100894.80
2017-11-06T12:08:08.319Z,100883.41
2017-11-06T12:11:10.602Z,100904.12
2017-11-06T12:14:12.088Z,100876.39
2017-11-06T12:17:13.633Z,100900.02
2017-11-06T12:20:15.182Z,100899.95
2017-11-06T12:23:16.702Z,100904.30
2017-11-06T12:26:19.001Z,100902.16
2017-11-06T12:29:20.594Z,100908.72
2017-11-06T12:32:22.241Z,100903.84
2017-11-06T12:35:23.804Z,100909.34
2017-11-06T12:38:25.370Z,100911.06
2017-11-06T12:41:26.957Z,100911.98
2017-11-06T12:44:28.469Z,100912.47
2017-11-06T12:47:30.048Z,100906.78
2017-11-06T12:50:32.305Z,100910.73
2017-11-06T12:53:33.801Z,100909.91
2017-11-06T12:56:35.451Z,100909.60
2017-11-06T12:59:37.031Z,100923.66
2017-11-06T13:02:38.530Z,100945.69
2017-11-06T13:05:40.083Z,100928.44
2017-11-06T13:08:41.638Z,100909.08
2017-11-06T13:11:43.124Z,100935.80
2017-11-06T13:14:44.667Z,100929.26
2017-11-06T13:17:47.315Z,100934.63
2017-11-06T13:20:49.152Z,100933.25
2017-11-06T13:23:51.069Z,100932.94
2017-11-06T13:26:53.779Z,100933.41
2017-11-06T13:29:56.497Z,100934.05
2017-11-06T13:32:58.458Z,100943.66
2017-11-06T15:02:14.704Z,100995.75
2017-11-06T15:05:16.811Z,100995.38
2017-11-06T15:08:18.125Z,100989.74
2017-11-06T15:11:20.234Z,100993.80
2017-11-06T15:14:21.566Z,100992.19
2017-11-06T15:17:22.918Z,100994.26
2017-11-06T15:20:24.399Z,100996.46
2017-11-06T15:23:25.774Z,100997.45
2017-11-06T15:26:27.136Z,100996.17
2017-11-06T15:29:28.464Z,100992.02
2017-11-06T15:32:29.819Z,100997.22
2017-11-06T15:35:31.190Z,101002.13
2017-11-06T15:38:32.525Z,101001.72
2017-11-06T15:41:33.837Z,101005.28
2017-11-06T15:44:35.160Z,101010.21
2017-11-06T15:47:36.529Z,101016.38
2017-11-06T15:50:37.818Z,101012.04
2017-11-06T15:53:39.145Z,101008.52
2017-11-06T15:56:40.435Z,101002.81
2017-11-06T15:59:41.770Z,101011.62
2017-11-06T16:02:43.078Z,101010.27
2017-11-06T16:05:44.480Z,101013.33
2017-11-06T16:08:45.768Z,101018.70
2017-11-06T16:11:47.109Z,101025.31
2017-11-06T16:14:48.465Z,101019.09
2017-11-06T16:17:49.777Z,101022.67
2017-11-06T16:20:51.126Z,101036.36
2017-11-06T16:23:52.414Z,101027.59
2017-11-06T16:26:53.756Z,101045.23
2017-11-06T16:29:55.391Z,101040.03
2017-11-06T16:32:56.847Z,101040.48
2017-11-06T16:35:59.262Z,101040.94
2017-11-06T16:39:00.687Z,101039.20
2017-11-06T16:42:02.783Z,101040.53
2017-11-06T16:45:04.214Z,101050.66
2017-11-06T16:48:06.368Z,101044.03
2017-11-06T16:51:07.951Z,101055.08
2017-11-06T16:54:10.052Z,101057.73
2017-11-06T16:57:11.472Z,101053.77
2017-11-06T17:00:12.880Z,101039.27
2017-11-06T17:03:14.498Z,101058.19
2017-11-06T17:06:16.078Z,101062.56
2017-11-06T17:09:17.455Z,101052.44
2017-11-06T17:12:18.863Z,101066.53
2017-11-06T17:15:20.216Z,101066.52
2017-11-06T17:18:23.815Z,101065.66
2017-11-06T17:21:26.005Z,101075.78
2017-11-06T17:24:29.006Z,101072.25
2017-11-06T17:27:30.432Z,101070.48
2017-11-06T17:30:33.578Z,101076.20
2017-11-06T17:33:36.265Z,101077.95
2017-11-06T17:36:46.000Z,101070.02
2017-11-06T17:39:52.887Z,101076.62
2017-11-06T17:42:55.257Z,101080.57
2017-11-06T17:45:57.347Z,101078.38
2017-11-06T17:48:58.814Z,101080.11
2017-11-06T17:52:00.197Z,101083.20
2017-11-06T17:55:01.918Z,101081.88
2017-11-06T17:58:04.151Z,101087.16
2017-11-06T18:01:05.659Z,101093.31
2017-11-06T18:04:07.211Z,101094.19
2017-11-06T18:07:08.975Z,101092.84
2017-11-06T18:10:10.768Z,101099.48
2017-11-06T18:13:12.315Z,101086.61
2017-11-06T18:16:14.161Z,101096.77
2017-11-06T18:19:16.467Z,101099.84
2017-11-06T18:22:17.914Z,101115.61
2017-11-06T18:25:19.347Z,101110.39
2017-11-06T18:28:21.749Z,101107.38
2017-11-06T18:31:23.303Z,101106.45
2017-11-06T18:34:24.912Z,101105.81
2017-11-06T18:37:26.406Z,101118.97
2017-11-06T18:40:28.016Z,101108.39
2017-11-06T18:43:29.355Z,101105.14
2017-11-06T18:46:30.767Z,101109.77
2017-11-06T18:49:32.835Z,101105.89
2017-11-06T18:52:34.230Z,101110.28
2017-11-06T18:55:35.562Z,101115.13
2017-11-06T18:58:36.902Z,101119.16
2017-11-06T19:01:38.231Z,101127.09
2017-11-06T19:04:40.311Z,101117.48
2017-11-06T19:07:42.413Z,101113.12
2017-11-06T19:10:43.717Z,101122.80
2017-11-06T19:13:45.223Z,101130.28
2017-11-06T19:16:46.693Z,101130.73
2017-11-06T19:19:48.167Z,101129.01
2017-11-06T19:22:49.788Z,101133.80
2017-11-06T19:25:51.187Z,101148.16
2017-11-06T19:28:52.508Z,101145.86
2017-11-06T19:31:54.154Z,101136.87
2017-11-06T19:34:55.794Z,101138.19
2017-11-06T19:37:57.275Z,101136.88
2017-11-06T19:40:58.830Z,101143.08
2017-11-06T19:44:00.442Z,101147.49
2017-11-06T19:47:01.919Z,101142.66
2017-11-06T19:50:04.065Z,101143.97
2017-11-06T19:53:05.374Z,101143.55
2017-11-06T19:56:06.745Z,101150.15
2017-11-06T19:59:08.078Z,101152.36
2017-11-06T20:02:09.492Z,101146.19
2017-11-06T20:05:11.646Z,101152.36
2017-11-06T20:08:13.686Z,101157.20
2017-11-06T20:11:15.041Z,101167.77
2017-11-06T20:14:17.983Z,101155.86
2017-11-06T20:17:19.350Z,101164.25
2017-11-06T20:20:20.676Z,101167.77
2017-11-06T20:23:22.080Z,101174.81
2017-11-06T20:26:23.710Z,101174.81
2017-11-06T20:29:25.134Z,101183.59
2017-11-06T20:32:26.560Z,101174.80
2017-11-06T20:35:28.023Z,101176.56
2017-11-06T20:38:30.199Z,101177.89
2017-11-06T20:41:32.778Z,101178.32
2017-11-06T20:44:34.901Z,101175.70
2017-11-06T20:47:37.121Z,101180.52
2017-11-06T20:50:38.542Z,101188.45
2017-11-06T20:53:39.998Z,101179.19
2017-11-06T20:56:41.421Z,101193.28
2017-11-06T20:59:42.813Z,101197.72
2017-11-06T21:02:44.906Z,101190.66
2017-11-06T21:05:46.482Z,101194.17
2017-11-06T21:08:47.792Z,101186.70
2017-11-06T21:11:50.037Z,101187.58
2017-11-06T21:14:52.357Z,101196.83
2017-11-06T21:17:53.689Z,101185.38
2017-11-06T21:20:56.095Z,101176.58
2017-11-06T21:23:58.153Z,101176.98
2017-11-06T21:26:59.748Z,101169.06
2017-11-06T21:30:07.438Z,101168.63
2017-11-06T21:33:08.865Z,101161.59
2017-11-06T21:36:10.212Z,101170.39
2017-11-06T21:39:11.664Z,101158.51
2017-11-06T21:42:13.068Z,101166.43
2017-11-06T21:45:14.489Z,101166.44
2017-11-06T21:48:15.910Z,101160.25
2017-11-06T21:51:17.977Z,101167.76
2017-11-06T21:54:20.239Z,101160.70
2017-11-06T21:57:22.331Z,101163.34
2017-11-06T22:00:23.669Z,101163.80
2017-11-06T22:03:26.003Z,101163.38
2017-11-06T22:06:27.403Z,101160.27
2017-11-06T22:09:28.795Z,101162.03
2017-11-06T22:12:30.201Z,101168.17
2017-11-06T22:15:31.711Z,101160.26
2017-11-06T22:18:33.074Z,101164.68
2017-11-06T22:21:34.413Z,101152.34
2017-11-06T22:24:35.730Z,101149.28
2017-11-06T22:27:37.038Z,101157.62
2017-11-06T22:30:39.088Z,101148.81
2017-11-06T22:33:40.476Z,101151.03
2017-11-06T22:36:41.794Z,101145.31
2017-11-06T22:39:43.158Z,101148.39
2017-11-06T22:42:45.257Z,101148.38
2017-11-06T22:45:46.556Z,101151.45
2017-11-06T22:48:47.880Z,101146.58
2017-11-06T22:51:49.202Z,101147.45
2017-11-06T22:54:50.512Z,101148.80
2017-11-06T22:57:52.578Z,101143.92
2017-11-06T23:00:53.970Z,101143.91
2017-11-06T23:03:55.307Z,101136.84
2017-11-06T23:06:56.666Z,101138.19
2017-11-06T23:09:58.656Z,101130.61
2017-11-06T23:13:00.059Z,101131.91
2017-11-06T23:16:02.608Z,101134.91
2017-11-06T23:19:03.938Z,101134.92
2017-11-06T23:22:06.199Z,101136.22
2017-11-06T23:25:08.144Z,101137.19
2017-11-06T23:28:09.917Z,101117.30
2017-11-06T23:31:11.981Z,101124.55
2017-11-06T23:34:13.402Z,101125.57
2017-11-06T23:37:16.428Z,101112.25
2017-11-06T23:40:17.790Z,101117.13
2017-11-06T23:43:19.143Z,101119.75
2017-11-06T23:46:21.056Z,101117.95
2017-11-06T23:49:38.288Z,101124.63
2017-11-06T23:52:39.633Z,101123.76
2017-11-06T23:55:41.682Z,101122.75
2017-11-06T23:58:43.604Z,101117.48
